LFSB METAR :   2017/10/23 00:00 LFSB 230000Z AUTO 25011KT 9999 ///TCU 08/06 Q1021 BECMG SCT020 BKN060

TAF  2017/10/22 18:21 TAF LFSB 221700Z 2218/2318 26010KT 9999 -SHRA FEW026 SCT040 BKN060 TEMPO 2218/2224 28012G22KT PROB40 TEMPO 2218/2221 4500 SHRA FEW030TCU TEMPO 2310/2316 27012G22KT